createdAt,value
2022-10-17T00:00:42.902Z,7.03
2022-10-17T00:03:10.734Z,4.72
2022-10-17T00:05:45.557Z,7.00
2022-10-17T00:08:13.507Z,6.07
2022-10-17T00:10:41.283Z,4.72
2022-10-17T00:13:09.413Z,6.85
2022-10-17T00:15:37.170Z,7.83
2022-10-17T00:18:05.045Z,8.63
2022-10-17T00:20:33.087Z,7.03
2022-10-17T00:23:00.785Z,10.80
2022-10-17T00:25:28.591Z,10.88
2022-10-17T00:27:56.276Z,6.38
2022-10-17T00:30:24.042Z,9.00
2022-10-17T00:32:51.772Z,6.60
2022-10-17T00:35:19.426Z,6.35
2022-10-17T00:37:47.188Z,3.28
2022-10-17T00:40:14.837Z,7.47
2022-10-17T00:42:42.616Z,3.90
2022-10-17T00:45:22.443Z,5.55
2022-10-17T00:47:52.243Z,6.60
2022-10-17T00:50:19.884Z,4.63
2022-10-17T00:52:47.984Z,7.95
2022-10-17T00:55:17.672Z,4.95
2022-10-17T00:57:45.437Z,8.60
2022-10-17T01:00:13.298Z,5.80
2022-10-17T01:02:41.141Z,7.93
2022-10-17T01:05:09.070Z,7.57
2022-10-17T01:07:37.364Z,5.25
2022-10-17T01:10:05.779Z,7.57
2022-10-17T01:12:46.764Z,5.83
2022-10-17T01:15:32.686Z,6.82
2022-10-17T01:18:23.517Z,12.25
2022-10-17T01:21:00.409Z,3.63
2022-10-17T01:23:43.466Z,17.33
2022-10-17T01:26:29.570Z,5.15
2022-10-17T01:29:03.334Z,7.68
2022-10-17T01:31:38.497Z,4.23
2022-10-17T01:34:09.153Z,4.22
2022-10-17T01:36:38.345Z,5.15
2022-10-17T01:39:12.240Z,11.03
2022-10-17T01:41:45.228Z,6.38
2022-10-17T01:44:12.966Z,4.80
2022-10-17T01:46:41.395Z,4.82
2022-10-17T01:49:09.557Z,4.07
2022-10-17T01:51:42.379Z,5.97
2022-10-17T01:54:28.505Z,7.15
2022-10-17T01:56:57.365Z,3.67
2022-10-17T01:59:25.927Z,2.90
2022-10-17T02:01:54.367Z,6.45
2022-10-17T02:04:22.005Z,6.45
2022-10-17T02:06:49.816Z,9.18
2022-10-17T02:09:24.259Z,6.18
2022-10-17T02:12:08.029Z,7.78
2022-10-17T02:14:50.860Z,5.40
2022-10-17T02:17:18.572Z,3.35
2022-10-17T02:19:49.244Z,6.70
2022-10-17T02:22:16.961Z,6.63
2022-10-17T02:24:44.588Z,3.92
2022-10-17T02:27:16.474Z,7.72
2022-10-17T02:29:51.261Z,5.87
2022-10-17T02:32:26.008Z,12.48
2022-10-17T02:34:54.625Z,5.35
2022-10-17T02:37:23.563Z,4.22
2022-10-17T02:39:51.330Z,6.67
2022-10-17T02:42:19.202Z,6.75
2022-10-17T02:44:46.971Z,7.75
2022-10-17T02:47:17.617Z,6.23
2022-10-17T02:49:46.454Z,6.57
2022-10-17T02:52:15.767Z,2.97
2022-10-17T02:54:49.527Z,7.10
2022-10-17T02:57:22.786Z,2.47
2022-10-17T02:59:50.582Z,7.63
2022-10-17T03:02:18.237Z,3.15
2022-10-17T03:04:46.466Z,4.33
2022-10-17T03:07:14.213Z,6.72
2022-10-17T03:09:41.950Z,10.00
2022-10-17T03:12:09.602Z,4.10
2022-10-17T03:14:37.356Z,4.47
2022-10-17T03:17:05.079Z,5.18
2022-10-17T03:19:32.706Z,5.53
2022-10-17T03:22:00.417Z,5.35
2022-10-17T03:24:28.091Z,9.55
2022-10-17T03:26:55.817Z,6.70
2022-10-17T03:29:23.486Z,4.87
2022-10-17T03:31:51.204Z,11.25
2022-10-17T03:34:19.018Z,7.05
2022-10-17T03:36:46.768Z,6.23
2022-10-17T03:39:14.465Z,9.10
2022-10-17T03:41:42.322Z,5.78
2022-10-17T03:44:09.952Z,7.65
2022-10-17T03:46:37.675Z,5.15
2022-10-17T03:49:05.340Z,5.80
2022-10-17T03:51:34.907Z,6.13
2022-10-17T03:54:02.819Z,3.57
2022-10-17T03:56:30.590Z,10.40
2022-10-17T03:58:58.319Z,3.42
2022-10-17T04:01:26.086Z,5.87
2022-10-17T04:03:54.961Z,4.40
2022-10-17T04:06:22.821Z,6.85
2022-10-17T04:08:50.615Z,6.63
2022-10-17T04:11:19.708Z,6.32
2022-10-17T04:13:47.460Z,5.68
2022-10-17T04:16:15.993Z,6.43
2022-10-17T04:18:43.691Z,8.80
2022-10-17T04:21:11.515Z,11.75
2022-10-17T04:23:39.195Z,5.60
2022-10-17T04:26:07.489Z,4.60
2022-10-17T04:28:35.263Z,8.30
2022-10-17T04:31:03.918Z,7.65
2022-10-17T04:33:31.605Z,6.57
2022-10-17T04:36:06.257Z,6.72
2022-10-17T04:38:34.052Z,5.35
2022-10-17T04:41:03.399Z,12.63
2022-10-17T04:43:31.612Z,8.77
2022-10-17T04:46:00.528Z,10.20
2022-10-17T04:48:28.757Z,7.65
2022-10-17T04:50:56.973Z,5.70
2022-10-17T04:53:24.974Z,5.75
2022-10-17T04:55:52.632Z,6.75
2022-10-17T04:58:20.666Z,5.00
2022-10-17T05:00:48.369Z,5.30
2022-10-17T05:03:16.352Z,6.32
2022-10-17T05:05:44.139Z,6.40
2022-10-17T05:08:12.121Z,5.90
2022-10-17T05:10:41.290Z,10.40
2022-10-17T05:13:09.044Z,7.07
2022-10-17T05:15:36.815Z,8.30
2022-10-17T05:18:05.028Z,5.55
2022-10-17T05:20:32.781Z,9.13
2022-10-17T05:23:00.646Z,9.48
2022-10-17T05:25:28.929Z,5.53
2022-10-17T05:27:56.614Z,8.85
2022-10-17T05:30:24.944Z,6.97
2022-10-17T05:32:53.850Z,6.93
2022-10-17T05:35:21.814Z,6.28
2022-10-17T05:37:49.564Z,10.43
2022-10-17T05:40:17.211Z,9.47
2022-10-17T05:42:51.024Z,9.82
2022-10-17T05:45:18.781Z,10.13
2022-10-17T05:47:46.498Z,8.27
2022-10-17T05:50:14.226Z,8.07
2022-10-17T05:52:43.915Z,6.72
2022-10-17T05:55:14.109Z,6.70
2022-10-17T05:57:41.920Z,10.20
2022-10-17T06:00:10.019Z,6.82
2022-10-17T06:02:37.745Z,7.78
2022-10-17T06:05:05.537Z,11.47
2022-10-17T06:07:33.219Z,12.63
2022-10-17T06:10:01.283Z,5.97
2022-10-17T06:12:30.588Z,9.93
2022-10-17T06:14:58.429Z,9.00
2022-10-17T06:17:26.174Z,11.27
2022-10-17T06:19:53.862Z,10.25
2022-10-17T06:22:21.528Z,8.13
2022-10-17T06:24:49.209Z,10.60
2022-10-17T06:27:16.939Z,10.93
2022-10-17T06:29:44.578Z,13.07
2022-10-17T06:32:14.948Z,7.38
2022-10-17T06:34:43.222Z,5.70
2022-10-17T06:37:11.011Z,7.33
2022-10-17T06:39:38.802Z,7.05
2022-10-17T06:42:06.538Z,10.90
2022-10-17T06:44:34.660Z,8.02
2022-10-17T06:47:02.517Z,9.00
2022-10-17T06:49:30.196Z,10.23
2022-10-17T06:51:57.878Z,10.40
2022-10-17T06:54:25.581Z,7.90
2022-10-17T06:56:53.282Z,9.23
2022-10-17T06:59:20.996Z,9.10
2022-10-17T07:01:48.696Z,11.40
2022-10-17T07:04:16.797Z,9.85
2022-10-17T07:06:44.495Z,9.10
2022-10-17T07:09:12.204Z,7.15
2022-10-17T07:11:40.363Z,7.83
2022-10-17T07:14:08.093Z,8.20
2022-10-17T07:16:35.899Z,9.40
2022-10-17T07:19:03.871Z,8.80
2022-10-17T07:21:35.228Z,8.40
2022-10-17T07:24:07.290Z,9.90
2022-10-17T07:26:35.007Z,15.70
2022-10-17T07:29:02.751Z,11.93
2022-10-17T07:31:30.520Z,16.67
2022-10-17T07:34:00.396Z,13.25
2022-10-17T07:36:28.063Z,13.90
2022-10-17T07:38:56.663Z,12.10
2022-10-17T07:41:24.791Z,9.73
2022-10-17T07:43:52.474Z,8.97
2022-10-17T07:46:20.230Z,10.25
2022-10-17T07:48:47.914Z,11.93
2022-10-17T07:51:15.781Z,8.98
2022-10-17T07:53:47.959Z,9.80
2022-10-17T07:56:16.669Z,12.80
2022-10-17T07:58:44.480Z,7.70
2022-10-17T08:01:16.243Z,6.90
2022-10-17T08:03:47.145Z,8.25
2022-10-17T08:06:17.917Z,13.10
2022-10-17T08:08:47.681Z,10.07
2022-10-17T08:11:16.864Z,9.10
2022-10-17T08:13:44.560Z,8.60
2022-10-17T08:16:13.083Z,6.93
2022-10-17T08:18:41.165Z,8.30
2022-10-17T08:21:09.367Z,12.05
2022-10-17T08:23:37.503Z,10.27
2022-10-17T08:26:06.041Z,8.87
2022-10-17T08:28:35.529Z,7.45
2022-10-17T08:31:04.428Z,6.28
2022-10-17T08:33:33.334Z,8.17
2022-10-17T08:36:03.475Z,6.13
2022-10-17T08:38:35.121Z,10.88
2022-10-17T08:41:08.012Z,5.88
2022-10-17T08:43:42.865Z,12.38
2022-10-17T08:46:10.603Z,7.95
2022-10-17T08:48:45.615Z,9.95
2022-10-17T08:51:20.692Z,8.67
2022-10-17T08:53:58.902Z,12.68
2022-10-17T08:56:47.513Z,9.57
2022-10-17T08:59:15.694Z,8.93
2022-10-17T09:02:01.393Z,6.53
2022-10-17T09:04:44.263Z,7.43
2022-10-17T09:07:11.923Z,7.32
2022-10-17T09:09:39.605Z,6.38
2022-10-17T09:12:28.326Z,7.50
2022-10-17T09:14:58.952Z,8.18
2022-10-17T09:17:32.638Z,9.93
2022-10-17T09:20:01.889Z,5.43
2022-10-17T09:22:31.400Z,9.55
2022-10-17T09:25:03.592Z,8.50
2022-10-17T09:27:39.866Z,8.27
2022-10-17T09:30:44.036Z,16.45
2022-10-17T09:33:35.576Z,6.55
2022-10-17T09:36:12.028Z,8.82
2022-10-17T09:38:46.703Z,8.23
2022-10-17T09:44:14.983Z,8.40
2022-10-17T09:46:42.578Z,13.02
2022-10-17T09:49:14.812Z,9.57
2022-10-17T09:51:44.170Z,6.60
2022-10-17T09:54:20.607Z,7.03
2022-10-17T09:57:04.397Z,7.18
2022-10-17T09:59:33.106Z,8.30
2022-10-17T10:02:09.682Z,6.93
2022-10-17T10:04:53.083Z,8.80
2022-10-17T10:07:29.105Z,10.50
2022-10-17T10:09:57.333Z,9.67
2022-10-17T10:12:26.251Z,8.32
2022-10-17T10:14:55.418Z,12.38
2022-10-17T10:17:41.797Z,8.27
2022-10-17T10:20:46.966Z,9.95
2022-10-17T10:23:19.631Z,8.20
2022-10-17T10:25:51.281Z,13.13
2022-10-17T10:28:18.964Z,11.00
2022-10-17T10:30:48.248Z,14.05
2022-10-17T10:33:15.873Z,10.85
2022-10-17T10:35:43.572Z,12.40
2022-10-17T10:38:12.626Z,9.18
2022-10-17T10:40:45.886Z,7.35
2022-10-17T10:43:23.866Z,14.97
2022-10-17T10:45:51.455Z,9.50
2022-10-17T10:48:23.230Z,15.55
2022-10-17T10:50:53.570Z,13.10
2022-10-17T10:53:35.641Z,11.80
2022-10-17T10:56:03.305Z,8.88
2022-10-17T10:58:50.880Z,9.63
2022-10-17T11:01:38.698Z,8.23
2022-10-17T11:04:25.150Z,8.85
2022-10-17T11:06:53.649Z,6.82
2022-10-17T11:09:28.821Z,6.97
2022-10-17T11:12:00.561Z,9.13
2022-10-17T11:14:37.390Z,8.40
2022-10-17T11:17:20.887Z,11.90
2022-10-17T11:19:57.144Z,11.13
2022-10-17T11:22:29.484Z,11.07
2022-10-17T11:25:01.159Z,9.13
2022-10-17T11:27:29.521Z,8.80
2022-10-17T11:29:57.445Z,8.18
2022-10-17T11:32:30.379Z,10.30
2022-10-17T11:35:04.794Z,9.43
2022-10-17T11:37:36.134Z,10.93
2022-10-17T11:40:05.891Z,8.80
2022-10-17T11:42:41.348Z,10.32
2022-10-17T11:45:16.327Z,7.13
2022-10-17T11:48:03.628Z,7.93
2022-10-17T11:53:24.008Z,8.27
2022-10-17T11:55:51.787Z,11.30
2022-10-17T11:58:38.652Z,8.88
2022-10-17T12:01:24.971Z,12.60
2022-10-17T12:04:00.403Z,9.82
2022-10-17T12:06:43.142Z,11.77
2022-10-17T12:09:10.729Z,9.60
2022-10-17T12:11:43.765Z,10.80
2022-10-17T12:14:29.949Z,10.38
2022-10-17T12:16:58.822Z,9.98
2022-10-17T12:19:28.718Z,10.63
2022-10-17T12:22:00.107Z,14.38
2022-10-17T12:24:31.534Z,7.78
2022-10-17T12:26:59.367Z,10.63
2022-10-17T12:29:28.423Z,8.20
2022-10-17T12:31:56.273Z,6.85
2022-10-17T12:34:23.981Z,9.85
2022-10-17T12:36:51.738Z,7.28
2022-10-17T12:39:19.428Z,6.60
2022-10-17T12:41:47.056Z,8.00
2022-10-17T12:44:15.660Z,11.23
2022-10-17T12:46:53.423Z,8.52
2022-10-17T12:49:27.015Z,11.50
2022-10-17T12:52:13.962Z,7.83
2022-10-17T12:54:53.549Z,5.40
2022-10-17T12:57:39.824Z,6.88
2022-10-17T13:00:18.373Z,6.32
2022-10-17T13:02:46.049Z,5.38
2022-10-17T13:05:17.802Z,3.67
2022-10-17T13:07:45.473Z,7.45
2022-10-17T13:10:24.116Z,4.40
2022-10-17T13:12:53.393Z,4.82
2022-10-17T13:15:24.792Z,4.65
2022-10-17T13:17:57.292Z,7.73
2022-10-17T13:20:31.315Z,8.77
2022-10-17T13:23:06.077Z,6.03
2022-10-17T13:25:38.813Z,8.40
2022-10-17T13:28:13.897Z,6.68
2022-10-17T13:30:49.801Z,5.00
2022-10-17T13:33:32.989Z,4.78
2022-10-17T13:36:01.891Z,5.27
2022-10-17T13:38:37.768Z,3.42
2022-10-17T13:41:34.975Z,3.75
2022-10-17T13:44:14.756Z,4.43
2022-10-17T13:46:44.121Z,5.13
2022-10-17T13:49:31.067Z,6.50
2022-10-17T13:52:02.147Z,5.95
2022-10-17T13:54:37.281Z,4.55
2022-10-17T13:57:08.856Z,4.03
2022-10-17T13:59:44.596Z,4.75
2022-10-17T14:02:21.761Z,5.30
2022-10-17T14:05:17.675Z,4.45
2022-10-17T14:08:10.731Z,7.53
2022-10-17T14:10:40.629Z,3.53
2022-10-17T14:13:17.714Z,4.50
2022-10-17T14:15:52.237Z,5.45
2022-10-17T14:18:23.859Z,4.05
2022-10-17T14:23:49.198Z,8.85
2022-10-17T14:26:27.420Z,6.50
2022-10-17T14:29:12.358Z,5.53
2022-10-17T14:31:46.092Z,4.72
2022-10-17T14:34:24.311Z,9.07
2022-10-17T14:36:52.635Z,4.57
2022-10-17T14:39:21.363Z,7.20
2022-10-17T14:41:49.106Z,3.60
2022-10-17T14:44:30.314Z,5.43
2022-10-17T14:47:18.225Z,5.82
2022-10-17T14:49:52.774Z,6.22
2022-10-17T14:52:20.434Z,6.15
2022-10-17T14:54:48.612Z,5.67
2022-10-17T14:57:18.623Z,4.05
2022-10-17T14:59:54.986Z,4.50
2022-10-17T15:02:26.658Z,4.33
2022-10-17T15:04:54.679Z,5.53
2022-10-17T15:07:22.630Z,4.50
2022-10-17T15:09:56.367Z,7.63
2022-10-17T15:12:25.757Z,3.60
2022-10-17T15:14:57.519Z,4.85
2022-10-17T15:17:30.387Z,4.18
2022-10-17T15:20:03.009Z,5.23
2022-10-17T15:22:35.314Z,4.07
2022-10-17T15:25:09.577Z,4.38
2022-10-17T15:27:41.507Z,2.90
2022-10-17T15:30:22.348Z,6.65
2022-10-17T15:32:56.217Z,5.95
2022-10-17T15:35:27.226Z,7.15
2022-10-17T15:37:57.106Z,3.88
2022-10-17T15:40:31.626Z,6.35
2022-10-17T15:43:16.162Z,6.30
2022-10-17T15:45:47.837Z,3.77
2022-10-17T15:48:23.207Z,7.95
2022-10-17T15:50:53.834Z,4.50
2022-10-17T15:53:26.746Z,6.63
2022-10-17T15:55:58.678Z,4.25
2022-10-17T15:58:29.176Z,3.10
2022-10-17T16:00:56.857Z,4.20
2022-10-17T16:03:24.648Z,5.65
2022-10-17T16:05:54.655Z,9.20
2022-10-17T16:08:25.662Z,4.43
2022-10-17T16:10:54.275Z,3.57
2022-10-17T16:13:25.358Z,6.60
2022-10-17T16:15:55.072Z,6.93
2022-10-17T16:18:31.165Z,4.47
2022-10-17T16:21:01.851Z,3.90
2022-10-17T16:23:30.713Z,3.92
2022-10-17T16:26:02.399Z,2.90
2022-10-17T16:28:33.264Z,7.13
2022-10-17T16:31:04.308Z,7.97
2022-10-17T16:33:34.861Z,5.30
2022-10-17T16:36:04.383Z,3.57
2022-10-17T16:38:36.662Z,7.10
2022-10-17T16:41:24.722Z,6.55
2022-10-17T16:43:55.632Z,5.87
2022-10-17T16:46:29.506Z,9.05
2022-10-17T16:48:57.350Z,5.38
2022-10-17T16:51:28.433Z,6.22
2022-10-17T16:54:01.429Z,6.25
2022-10-17T16:56:35.452Z,6.55
2022-10-17T16:59:04.508Z,3.28
2022-10-17T17:01:38.351Z,5.40
2022-10-17T17:04:07.945Z,2.55
2022-10-17T17:06:38.391Z,4.43
2022-10-17T17:09:09.756Z,5.90
2022-10-17T17:11:39.377Z,3.92
2022-10-17T17:14:12.157Z,7.38
2022-10-17T17:16:46.711Z,3.35
2022-10-17T17:19:20.549Z,7.43
2022-10-17T17:21:51.162Z,9.57
2022-10-17T17:24:38.036Z,6.85
2022-10-17T17:27:15.063Z,4.17
2022-10-17T17:29:44.923Z,3.83
2022-10-17T17:32:17.863Z,7.32
2022-10-17T17:34:52.626Z,4.40
2022-10-17T17:37:24.069Z,3.63
2022-10-17T17:39:51.816Z,5.15
2022-10-17T17:42:19.938Z,7.27
2022-10-17T17:44:48.624Z,7.18
2022-10-17T17:47:16.429Z,7.10
2022-10-17T17:49:44.445Z,7.68
2022-10-17T17:52:12.258Z,3.83
2022-10-17T17:54:40.984Z,6.15
2022-10-17T17:57:08.980Z,8.80
2022-10-17T17:59:36.698Z,3.80
2022-10-17T18:02:06.478Z,9.38
2022-10-17T18:04:34.429Z,4.72
2022-10-17T18:07:02.185Z,5.13
2022-10-17T18:09:29.913Z,5.03
2022-10-17T18:11:57.553Z,4.03
2022-10-17T18:14:25.816Z,8.68
2022-10-17T18:16:53.690Z,9.57
2022-10-17T18:19:23.899Z,4.10
2022-10-17T18:21:51.627Z,8.15
2022-10-17T18:24:19.809Z,7.73
2022-10-17T18:26:47.472Z,4.22
2022-10-17T18:29:16.015Z,6.95
2022-10-17T18:31:43.780Z,6.93
2022-10-17T18:34:11.564Z,9.00
2022-10-17T18:36:39.339Z,6.05
2022-10-17T18:39:07.028Z,8.32
2022-10-17T18:41:35.002Z,10.23
2022-10-17T18:44:05.870Z,10.80
2022-10-17T18:46:36.613Z,7.18
2022-10-17T18:49:04.338Z,7.50
2022-10-17T18:51:32.110Z,8.48
2022-10-17T18:53:59.946Z,4.60
2022-10-17T18:56:29.016Z,7.80
2022-10-17T18:58:56.843Z,10.38
2022-10-17T19:01:26.279Z,5.93
2022-10-17T19:03:54.591Z,10.98
2022-10-17T19:06:23.403Z,6.27
2022-10-17T19:08:51.248Z,8.00
2022-10-17T19:11:25.500Z,9.35
2022-10-17T19:13:57.332Z,10.37
2022-10-17T19:16:33.297Z,9.48
2022-10-17T19:19:06.604Z,6.70
2022-10-17T19:21:39.491Z,12.27
2022-10-17T19:24:08.316Z,6.63
2022-10-17T19:26:39.718Z,7.53
2022-10-17T19:29:18.537Z,8.80
2022-10-17T19:31:53.421Z,8.53
2022-10-17T19:34:39.128Z,8.60
2022-10-17T19:37:11.612Z,12.77
2022-10-17T19:39:40.690Z,10.03
2022-10-17T19:42:11.819Z,7.50
2022-10-17T19:44:43.418Z,7.38
2022-10-17T19:47:12.925Z,12.98
2022-10-17T19:49:47.700Z,9.70
2022-10-17T19:52:23.674Z,7.35
2022-10-17T19:54:56.332Z,7.60
2022-10-17T19:57:39.102Z,11.80
2022-10-17T20:00:19.940Z,12.88
2022-10-17T20:02:50.653Z,14.50
2022-10-17T20:05:27.370Z,18.40
2022-10-17T20:07:56.501Z,11.48
2022-10-17T20:10:24.198Z,10.05
2022-10-17T20:12:51.873Z,9.50
2022-10-17T20:15:19.585Z,9.85
2022-10-17T20:17:47.416Z,19.92
2022-10-17T20:20:15.194Z,10.65
2022-10-17T20:22:42.936Z,11.37
2022-10-17T20:25:10.682Z,11.70
2022-10-17T20:27:38.511Z,12.05
2022-10-17T20:30:06.464Z,12.87
2022-10-17T20:32:39.624Z,13.23
2022-10-17T20:35:07.774Z,13.82
2022-10-17T20:37:41.446Z,11.82
2022-10-17T20:40:33.665Z,15.07
2022-10-17T20:42:58.290Z,16.70
2022-10-17T20:45:37.582Z,12.75
2022-10-17T20:48:15.255Z,19.97
2022-10-17T20:50:43.237Z,13.15
2022-10-17T20:53:35.621Z,10.10
2022-10-17T20:56:02.230Z,19.30
2022-10-17T20:58:29.877Z,19.55
2022-10-17T21:00:57.618Z,11.20
2022-10-17T21:03:25.869Z,13.00
2022-10-17T21:05:53.689Z,17.77
2022-10-17T21:08:21.384Z,16.00
2022-10-17T21:10:49.035Z,14.10
2022-10-17T21:13:16.805Z,9.90
2022-10-17T21:15:44.437Z,9.00
2022-10-17T21:18:12.147Z,13.95
2022-10-17T21:20:39.794Z,14.00
2022-10-17T21:23:07.522Z,14.15
2022-10-17T21:25:35.186Z,10.52
2022-10-17T21:28:02.941Z,19.30
2022-10-17T21:30:30.692Z,10.20
2022-10-17T21:32:58.841Z,13.07
2022-10-17T21:35:26.679Z,17.15
2022-10-17T21:37:54.453Z,18.77
2022-10-17T21:40:22.089Z,18.42
2022-10-17T21:42:50.355Z,19.00
2022-10-17T21:45:25.253Z,14.00
2022-10-17T21:48:12.070Z,11.40
2022-10-17T21:50:41.582Z,17.83
2022-10-17T21:53:09.290Z,12.25
2022-10-17T21:55:37.732Z,16.73
2022-10-17T21:58:05.431Z,12.13
2022-10-17T22:00:33.153Z,12.20
2022-10-17T22:03:01.149Z,21.47
2022-10-17T22:05:30.384Z,22.23
2022-10-17T22:07:58.062Z,24.38
2022-10-17T22:10:25.826Z,22.40
2022-10-17T22:12:53.553Z,18.90
2022-10-17T22:15:21.193Z,19.20
2022-10-17T22:17:49.050Z,24.05
2022-10-17T22:20:16.744Z,17.05
2022-10-17T22:22:44.487Z,14.93
2022-10-17T22:25:12.191Z,17.75
2022-10-17T22:27:39.911Z,16.50
2022-10-17T22:30:07.863Z,19.75
2022-10-17T22:32:35.641Z,17.25
2022-10-17T22:35:03.343Z,18.27
2022-10-17T22:37:31.394Z,20.83
2022-10-17T22:39:59.403Z,15.18
2022-10-17T22:42:31.621Z,14.55
2022-10-17T22:44:59.510Z,19.85
2022-10-17T22:47:27.318Z,18.55
2022-10-17T22:49:55.155Z,16.42
2022-10-17T22:52:22.846Z,16.87
2022-10-17T22:54:50.586Z,10.30
2022-10-17T22:57:18.234Z,18.88
2022-10-17T22:59:45.948Z,17.83
2022-10-17T23:02:13.724Z,17.38
2022-10-17T23:04:41.892Z,11.68
2022-10-17T23:07:14.294Z,20.65
2022-10-17T23:09:42.218Z,18.85
2022-10-17T23:12:09.988Z,19.77
2022-10-17T23:14:38.016Z,16.63
2022-10-17T23:17:06.273Z,15.03
2022-10-17T23:19:34.392Z,14.27
2022-10-17T23:22:02.281Z,22.13
2022-10-17T23:24:29.998Z,17.97
2022-10-17T23:26:57.735Z,16.38
2022-10-17T23:29:25.584Z,21.73
2022-10-17T23:31:56.705Z,14.85
2022-10-17T23:34:24.365Z,22.60
2022-10-17T23:36:55.162Z,22.70
2022-10-17T23:39:22.854Z,17.50
2022-10-17T23:41:50.664Z,11.97
2022-10-17T23:44:19.335Z,16.05
2022-10-17T23:46:47.055Z,15.15
2022-10-17T23:49:14.801Z,23.60
2022-10-17T23:51:42.546Z,13.68
2022-10-17T23:54:10.327Z,25.95
2022-10-17T23:56:37.973Z,20.33
2022-10-17T23:59:05.741Z,14.75
